Euskara    
Meteorología y climatología de Navarra
Datos de la estación - Meteo Navarra

Estación de Sartaguda GN

Altitud 310 m.


Datos desde el 22/11/2020 hasta el 23/11/2020 en horario solar
Los datos son PROVISIONALES

Anterior Página 1 de 1 Siguiente Descargar: Formato para Excel 2000 o superior   Formato csv   Formato para OpenOffice Calc
Fecha Temperatura Humedad relativa Radiación global Insolación Precipitación Vel. viento 10 m Vel. viento 10 m Dir. viento 10 m
°C % W/m² s l/m² m/s km/h °
22/11/2020 0:00 -0.5 92 0.0 0 0.0 0.1 0.4 294
22/11/2020 0:10 -0.5 91 0.0 0 0.0 0.8 2.7 331
22/11/2020 0:20 -0.8 90 0.0 0 0.0 0.7 2.6 284
22/11/2020 0:30 -0.7 92 0.0 0 0.0 1.2 4.4 282
22/11/2020 0:40 -0.6 91 0.0 0 0.0 0.7 2.4 295
22/11/2020 0:50 -0.5 91 0.0 0 0.0 0.7 2.4 313
22/11/2020 1:00 -0.4 92 0.0 0 0.0 0.6 2.3 309
22/11/2020 1:10 -0.6 91 0.0 0 0.0 0.4 1.3 295
22/11/2020 1:20 -0.8 91 0.0 0 0.0 0.1 0.3 294
22/11/2020 1:30 -1.1 91 0.0 0 0.0 0.5 1.7 261
22/11/2020 1:40 -1.2 91 0.0 0 0.0 0.8 2.8 322
22/11/2020 1:50 -1.4 91 0.0 0 0.0 0.6 2.1 350
22/11/2020 2:00 -1.4 92 0.0 0 0.0 0.6 2.3 305
22/11/2020 2:10 -1.4 92 0.0 0 0.0 1.0 3.7 291
22/11/2020 2:20 -0.6 94 0.0 0 0.0 1.4 4.9 305
22/11/2020 2:30 -0.3 94 0.0 0 0.0 1.2 4.3 296
22/11/2020 2:40 -0.3 94 0.0 0 0.0 1.3 4.7 301
22/11/2020 2:50 -0.5 92 0.0 0 0.0 0.7 2.4 301
22/11/2020 3:00 -0.6 92 0.0 0 0.0 1.0 3.5 310
22/11/2020 3:10 -0.5 92 0.0 0 0.0 1.2 4.5 306
22/11/2020 3:20 -0.4 92 0.0 0 0.0 0.7 2.6 307
22/11/2020 3:30 -0.5 92 0.0 0 0.0 0.9 3.2 304
22/11/2020 3:40 -0.6 92 0.0 0 0.0 0.9 3.2 311
22/11/2020 3:50 -0.7 92 0.0 0 0.0 0.8 2.7 294
22/11/2020 4:00 -0.6 92 0.0 0 0.0 0.9 3.2 324
22/11/2020 4:10 -0.8 92 0.0 0 0.0 0.4 1.4 315
22/11/2020 4:20 -0.9 93 0.0 0 0.0 0.2 0.6 244
22/11/2020 4:30 -1.1 93 0.0 0 0.0 1.0 3.7 257
22/11/2020 4:40 -1.2 93 0.0 0 0.0 1.4 5.1 268
22/11/2020 4:50 -1.2 92 0.0 0 0.0 1.3 4.6 269
22/11/2020 5:00 -1.1 92 0.0 0 0.0 1.1 4.1 279
22/11/2020 5:10 -1.1 92 0.0 0 0.0 1.4 5.1 280
22/11/2020 5:20 -1.2 92 0.0 0 0.0 1.3 4.8 276
22/11/2020 5:30 -1.2 92 0.0 0 0.0 1.3 4.7 277
22/11/2020 5:40 -1.4 92 0.0 0 0.0 1.2 4.2 287
22/11/2020 5:50 -1.4 93 0.0 0 0.0 1.1 3.8 305
22/11/2020 6:00 -1.5 92 0.0 0 0.0 0.9 3.1 300
22/11/2020 6:10 -1.5 93 0.0 0 0.0 1.4 4.9 311
22/11/2020 6:20 -1.3 94 0.0 0 0.0 1.3 4.5 314
22/11/2020 6:30 -1.2 94 0.0 0 0.0 1.4 4.9 319
22/11/2020 6:40 -1.2 93 0.0 0 0.0 1.2 4.2 314
22/11/2020 6:50 -1.3 93 0.0 0 0.0 1.0 3.7 322
22/11/2020 7:00 -1.4 93 0.0 0 0.0 0.3 1.0 310
22/11/2020 7:10 -1.6 94 0.0 0 0.0 0.7 2.4 278
22/11/2020 7:20 -1.6 94 9.7 0 0.0 0.9 3.3 279
22/11/2020 7:30 -1.4 93 31.7 348 0.0 0.9 3.2 278
22/11/2020 7:40 -1.2 93 52.6 600 0.0 1.0 3.7 299
22/11/2020 7:50 -0.9 93 75.7 600 0.0 0.9 3.4 302
22/11/2020 8:00 -0.7 92 101.1 600 0.0 1.1 3.9 295
22/11/2020 8:10 -0.3 91 127.7 600 0.0 0.8 2.8 306
22/11/2020 8:20 0.0 91 155.1 600 0.0 1.1 4.1 284
22/11/2020 8:30 0.3 89 178.0 600 0.0 1.2 4.2 314
22/11/2020 8:40 0.7 88 199.5 600 0.0 1.0 3.5 320
22/11/2020 8:50 1.0 87 222.3 600 0.0 1.0 3.6 328
22/11/2020 9:00 1.5 85 242.6 600 0.0 1.2 4.2 328
22/11/2020 9:10 2.1 85 261.5 600 0.0 1.1 4.0 324
22/11/2020 9:20 2.5 83 284.0 600 0.0 0.9 3.3 321
22/11/2020 9:30 3.1 81 314.1 600 0.0 0.7 2.6 324
22/11/2020 9:40 3.7 80 339.4 600 0.0 0.5 1.7 318
22/11/2020 9:50 4.5 78 356.6 600 0.0 0.4 1.3 308
22/11/2020 10:00 4.9 76 367.0 600 0.0 0.6 2.2 329
22/11/2020 10:10 5.6 74 374.3 600 0.0 0.5 1.9 325
22/11/2020 10:20 6.1 70 384.6 600 0.0 1.1 3.9 335
22/11/2020 10:30 6.4 67 402.4 600 0.0 0.7 2.3 333
22/11/2020 10:40 7.1 65 421.8 600 0.0 1.0 3.5 7
22/11/2020 10:50 7.7 62 435.2 600 0.0 1.0 3.7 15
22/11/2020 11:00 8.0 61 445.3 600 0.0 1.2 4.1 359
22/11/2020 11:10 8.4 60 453.5 600 0.0 1.3 4.8 358
22/11/2020 11:20 8.7 58 460.9 600 0.0 1.1 3.9 335
22/11/2020 11:30 9.1 57 466.8 600 0.0 1.6 5.7 9
22/11/2020 11:40 9.5 54 470.5 600 0.0 1.0 3.5 342
22/11/2020 11:50 9.9 53 472.8 600 0.0 1.0 3.5 16
22/11/2020 12:00 10.3 52 472.8 600 0.0 0.8 3.0 11
22/11/2020 12:10 10.5 50 472.5 600 0.0 1.1 3.8 14
22/11/2020 12:20 10.7 48 469.5 600 0.0 0.5 1.9 329
22/11/2020 12:30 11.0 46 465.9 600 0.0 0.8 2.8 19
22/11/2020 12:40 11.3 47 460.8 600 0.0 0.7 2.6 15
22/11/2020 12:50 11.5 48 451.0 600 0.0 1.0 3.4 303
22/11/2020 13:00 11.9 47 441.1 600 0.0 0.7 2.6 236
22/11/2020 13:10 12.1 47 429.1 600 0.0 1.0 3.6 336
22/11/2020 13:20 12.1 46 409.4 600 0.0 0.5 1.9 24
22/11/2020 13:30 12.3 46 399.2 600 0.0 0.8 2.8 345
22/11/2020 13:40 12.3 46 380.0 600 0.0 0.4 1.3 341
22/11/2020 13:50 12.7 45 356.4 600 0.0 0.1 0.4 40
22/11/2020 14:00 13.1 44 354.9 600 0.0 0.1 0.4 27
22/11/2020 14:10 13.0 45 321.1 600 0.0 1.4 4.9 334
22/11/2020 14:20 12.9 46 315.5 600 0.0 0.8 2.7 8
22/11/2020 14:30 12.8 46 303.5 600 0.0 1.0 3.7 15
22/11/2020 14:40 12.9 45 260.2 600 0.0 0.4 1.5 41
22/11/2020 14:50 13.0 45 223.3 600 0.0 1.1 3.8 348
22/11/2020 15:00 13.0 45 186.0 600 0.0 0.5 1.9 358
22/11/2020 15:10 13.2 45 199.6 600 0.0 0.7 2.5 348
22/11/2020 15:20 12.9 44 173.5 600 0.0 0.4 1.3 40
22/11/2020 15:30 13.1 44 146.6 600 0.0 0.0 0.1 108
22/11/2020 15:40 13.0 44 121.5 600 0.0 0.3 1.1 137
22/11/2020 15:50 12.5 47 95.3 600 0.0 0.6 2.1 170
22/11/2020 16:00 12.1 49 76.2 600 0.0 0.9 3.2 153
22/11/2020 16:10 11.4 54 47.9 394 0.0 1.1 4.0 165
22/11/2020 16:20 10.6 57 22.1 0 0.0 0.9 3.3 185
22/11/2020 16:30 10.3 58 8.1 0 0.0 0.6 2.2 202
22/11/2020 16:40 10.1 60 0.0 0 0.0 0.2 0.6 225
22/11/2020 16:50 9.4 63 0.0 0 0.0 0.1 0.4 314
22/11/2020 17:00 8.5 68 0.0 0 0.0 0.1 0.3 311
22/11/2020 17:10 7.8 68 0.0 0 0.0 0.0 0.1 297
22/11/2020 17:20 7.5 69 0.0 0 0.0 0.0 0.0 0
22/11/2020 17:30 6.8 72 0.0 0 0.0 0.3 0.9 322
22/11/2020 17:40 6.0 74 0.0 0 0.0 1.1 3.9 316
22/11/2020 17:50 5.5 75 0.0 0 0.0 0.4 1.4 303
22/11/2020 18:00 5.0 77 0.0 0 0.0 0.3 0.9 321
22/11/2020 18:10 4.4 81 0.0 0 0.0 0.1 0.3 251
22/11/2020 18:20 4.1 83 0.0 0 0.0 0.2 0.5 225
22/11/2020 18:30 4.1 81 0.0 0 0.0 0.2 0.6 335
22/11/2020 18:40 3.7 82 0.0 0 0.0 0.5 1.9 103
22/11/2020 18:50 3.3 84 0.0 0 0.0 0.6 2.1 87
22/11/2020 19:00 3.3 84 0.0 0 0.0 0.0 0.1 227
22/11/2020 19:10 3.4 84 0.0 0 0.0 0.4 1.3 257
22/11/2020 19:20 3.2 85 0.0 0 0.0 0.2 0.8 257
22/11/2020 19:30 2.9 86 0.0 0 0.0 0.0 0.0 0
22/11/2020 19:40 2.6 85 0.0 0 0.0 0.0 0.0 0
22/11/2020 19:50 2.5 84 0.0 0 0.0 0.2 0.8 33
22/11/2020 20:00 2.3 87 0.0 0 0.0 0.4 1.6 10
22/11/2020 20:10 2.2 88 0.0 0 0.0 0.2 0.7 289
22/11/2020 20:20 2.0 88 0.0 0 0.0 0.2 0.7 308
22/11/2020 20:30 1.9 89 0.0 0 0.0 0.8 2.8 292
22/11/2020 20:40 1.9 89 0.0 0 0.0 0.9 3.2 299
22/11/2020 20:50 2.0 90 0.0 0 0.0 1.0 3.6 292
22/11/2020 21:00 1.8 89 0.0 0 0.0 0.8 2.8 294
22/11/2020 21:10 1.6 89 0.0 0 0.0 1.1 4.1 291
22/11/2020 21:20 2.0 90 0.0 0 0.0 1.4 5.1 305
22/11/2020 21:30 2.1 89 0.0 0 0.0 1.6 5.7 313
22/11/2020 21:40 1.9 89 0.0 0 0.0 1.2 4.4 296
22/11/2020 21:50 1.9 90 0.0 0 0.0 1.5 5.5 308
22/11/2020 22:00 1.9 89 0.0 0 0.0 1.1 4.0 299
22/11/2020 22:10 1.8 89 0.0 0 0.0 1.1 4.0 295
22/11/2020 22:20 1.6 89 0.0 0 0.0 1.0 3.7 300
22/11/2020 22:30 1.7 90 0.0 0 0.0 1.0 3.5 308
22/11/2020 22:40 1.7 90 0.0 0 0.0 0.9 3.1 301
22/11/2020 22:50 1.6 90 0.0 0 0.0 0.8 2.9 301
22/11/2020 23:00 1.5 90 0.0 0 0.0 1.3 4.6 306
22/11/2020 23:10 1.4 91 0.0 0 0.0 0.8 3.0 320
22/11/2020 23:20 1.1 92 0.0 0 0.0 0.5 1.7 300
22/11/2020 23:30 1.0 92 0.0 0 0.0 0.1 0.4 304
22/11/2020 23:40 1.0 93 0.0 0 0.0 0.3 1.1 285
22/11/2020 23:50 0.9 93 0.0 0 0.0 0.5 1.7 296
Anterior Página 1 de 1 Siguiente

NOTA: Tipo de datos según el color:
   - Valores diarios o 10 minutos correctos
   - Valores diarios calculados a partir de un número de datos 10 minutos menor que 144 y mayor que 120, o de un número de datos semihorarios menor que 48 y mayor que 40 (caso de las estaciones de INTIA Y Ministerio)
   - Valores diez minutos estimados


Contacto        Enlaces        Aviso legal